CMX weather

Houghton County Memorial Airport
Hancock, Michigan, United States

Public forecast

Using degrees Fahrenheit for public forecast. Weather courtesy of forecast.io.

METAR (pilot weather report)

Retrieved 2019/09/15 03:53 UTC (56 minutes ago):

KCMX 150353Z AUTO 11008KT 7SM -RA FEW048 BKN075 OVC110 12/09 A3007 RMK AO2 RAB14E26B43 SLP186 P0002 T01170089

TAF (pilot weather forecast)

Forecast is more than 12 hours old.

Retrieved 2019/09/14 00:22 UTC (1 day ago):

TAF KCMX 142320Z 1500/1524 VRB04KT P6SM FEW100 FM150300 VRB03KT P6SM VCSH BKN100 FM150800 10005KT P6SM VCSH SCT080 FM151200 09006KT P6SM BKN070 FM152000 07005KT P6SM BKN017